createdAt,value
2018-07-24T00:01:33.938Z,20.00
2018-07-24T00:04:02.265Z,19.90
2018-07-24T00:06:30.553Z,19.80
2018-07-24T00:08:58.846Z,19.70
2018-07-24T00:11:27.169Z,19.60
2018-07-24T00:13:55.502Z,19.60
2018-07-24T00:16:23.765Z,19.50
2018-07-24T00:18:52.093Z,19.40
2018-07-24T00:21:20.414Z,19.30
2018-07-24T00:23:48.755Z,19.30
2018-07-24T00:26:19.243Z,19.30
2018-07-24T00:28:48.752Z,19.30
2018-07-24T00:31:17.196Z,19.20
2018-07-24T00:33:45.455Z,19.10
2018-07-24T00:36:13.721Z,19.10
2018-07-24T00:38:41.954Z,19.10
2018-07-24T00:41:10.225Z,19.10
2018-07-24T00:43:38.701Z,19.10
2018-07-24T00:46:06.964Z,19.10
2018-07-24T00:48:35.217Z,19.00
2018-07-24T00:51:03.543Z,19.00
2018-07-24T00:53:31.819Z,18.90
2018-07-24T00:56:00.078Z,19.00
2018-07-24T00:58:28.357Z,19.00
2018-07-24T01:00:57.236Z,19.00
2018-07-24T01:03:25.508Z,19.00
2018-07-24T01:05:53.775Z,19.00
2018-07-24T01:08:22.125Z,19.00
2018-07-24T01:10:50.927Z,19.00
2018-07-24T01:13:20.355Z,19.00
2018-07-24T01:15:48.625Z,19.00
2018-07-24T01:18:16.877Z,19.00
2018-07-24T01:20:45.166Z,19.10
2018-07-24T01:23:13.409Z,19.00
2018-07-24T01:25:41.763Z,19.00
2018-07-24T01:28:10.034Z,18.90
2018-07-24T01:30:38.310Z,18.90
2018-07-24T01:33:06.620Z,18.90
2018-07-24T01:35:34.893Z,18.80
2018-07-24T01:38:03.157Z,18.70
2018-07-24T01:40:31.438Z,18.70
2018-07-24T01:45:28.431Z,18.60
2018-07-24T01:47:56.861Z,18.60
2018-07-24T01:50:25.142Z,18.40
2018-07-24T01:52:53.717Z,18.40
2018-07-24T01:55:22.348Z,18.30
2018-07-24T01:57:50.714Z,18.20
2018-07-24T02:00:19.133Z,18.10
2018-07-24T02:02:47.404Z,18.10
2018-07-24T02:05:15.720Z,18.10
2018-07-24T02:07:44.013Z,18.00
2018-07-24T02:10:12.449Z,18.00
2018-07-24T02:12:40.702Z,17.90
2018-07-24T02:15:09.002Z,17.90
2018-07-24T02:17:37.476Z,17.90
2018-07-24T02:22:35.669Z,17.70
2018-07-24T02:25:04.881Z,17.70
2018-07-24T02:27:33.962Z,17.60
2018-07-24T02:30:02.874Z,17.50
2018-07-24T02:32:31.111Z,17.60
2018-07-24T02:37:27.402Z,17.70
2018-07-24T02:39:56.057Z,17.70
2018-07-24T02:42:24.308Z,17.80
2018-07-24T02:44:52.586Z,17.80
2018-07-24T02:47:21.794Z,17.90
2018-07-24T02:49:51.324Z,17.90
2018-07-24T02:52:19.559Z,17.90
2018-07-24T02:54:47.810Z,17.90
2018-07-24T02:57:17.494Z,17.90
2018-07-24T02:59:47.001Z,17.90
2018-07-24T03:02:16.443Z,17.80
2018-07-24T03:04:44.706Z,17.90
2018-07-24T03:07:12.987Z,17.80
2018-07-24T03:09:41.240Z,17.80
2018-07-24T03:12:09.674Z,17.70
2018-07-24T03:14:38.956Z,17.70
2018-07-24T03:17:07.270Z,17.60
2018-07-24T03:19:35.518Z,17.50
2018-07-24T03:22:04.764Z,17.40
2018-07-24T03:24:33.214Z,17.30
2018-07-24T03:27:01.911Z,17.20
2018-07-24T03:29:30.762Z,17.10
2018-07-24T03:31:59.735Z,17.10
2018-07-24T03:34:28.091Z,17.00
2018-07-24T03:36:56.386Z,17.00
2018-07-24T03:39:24.670Z,16.90
2018-07-24T03:41:52.949Z,16.90
2018-07-24T03:44:21.238Z,16.90
2018-07-24T03:46:49.901Z,16.90
2018-07-24T03:49:19.836Z,16.90
2018-07-24T03:51:48.514Z,16.90
2018-07-24T03:54:16.799Z,16.90
2018-07-24T03:56:45.091Z,16.90
2018-07-24T03:59:13.368Z,16.90
2018-07-24T04:01:41.643Z,16.90
2018-07-24T04:04:10.211Z,16.90
2018-07-24T04:06:38.540Z,16.90
2018-07-24T04:09:09.107Z,16.90
2018-07-24T04:11:37.439Z,17.00
2018-07-24T04:14:05.765Z,17.00
2018-07-24T04:16:34.145Z,17.00
2018-07-24T04:19:02.445Z,17.00
2018-07-24T04:21:30.851Z,17.00
2018-07-24T04:23:59.911Z,17.00
2018-07-24T04:26:29.164Z,17.00
2018-07-24T04:28:57.570Z,17.00
2018-07-24T04:31:27.313Z,17.10
2018-07-24T04:36:23.677Z,17.20
2018-07-24T04:38:52.024Z,17.30
2018-07-24T04:41:20.290Z,17.40
2018-07-24T04:43:48.561Z,17.50
2018-07-24T04:46:18.377Z,17.60
2018-07-24T04:48:47.237Z,17.70
2018-07-24T04:51:16.822Z,17.80
2018-07-24T04:53:46.521Z,17.90
2018-07-24T04:56:14.883Z,18.10
2018-07-24T04:58:43.124Z,18.20
2018-07-24T05:01:11.390Z,18.30
2018-07-24T05:03:39.667Z,18.50
2018-07-24T05:06:07.951Z,18.70
2018-07-24T05:08:36.197Z,18.80
2018-07-24T05:11:04.462Z,18.90
2018-07-24T05:13:32.737Z,19.00
2018-07-24T05:16:01.019Z,19.20
2018-07-24T05:18:29.337Z,19.30
2018-07-24T05:20:57.626Z,19.30
2018-07-24T05:23:25.938Z,19.00
2018-07-24T05:25:55.267Z,18.80
2018-07-24T05:28:24.260Z,18.60
2018-07-24T05:30:52.527Z,18.60
2018-07-24T05:33:20.813Z,18.70
2018-07-24T05:35:49.167Z,18.90
2018-07-24T05:38:17.434Z,19.20
2018-07-24T05:40:45.710Z,19.50
2018-07-24T05:43:13.996Z,19.70
2018-07-24T05:45:42.245Z,19.80
2018-07-24T05:48:10.529Z,20.10
2018-07-24T05:50:38.990Z,20.30
2018-07-24T05:53:08.029Z,20.60
2018-07-24T05:55:36.343Z,20.70
2018-07-24T05:58:04.657Z,20.80
2018-07-24T06:00:33.023Z,20.80
2018-07-24T06:03:01.328Z,20.90
2018-07-24T06:05:29.581Z,21.10
2018-07-24T06:07:58.537Z,21.30
2018-07-24T06:10:27.677Z,21.40
2018-07-24T06:12:57.148Z,21.60
2018-07-24T06:15:25.465Z,21.70
2018-07-24T06:20:22.568Z,21.80
2018-07-24T06:22:51.520Z,21.80
2018-07-24T06:25:20.766Z,22.00
2018-07-24T06:27:49.045Z,22.20
2018-07-24T06:30:17.327Z,22.50
2018-07-24T06:32:45.809Z,22.70
2018-07-24T06:35:14.102Z,22.90
2018-07-24T06:37:42.746Z,23.10
2018-07-24T06:40:12.817Z,23.30
2018-07-24T06:42:41.776Z,23.40
2018-07-24T06:45:10.747Z,23.50
2018-07-24T06:47:39.077Z,23.60
2018-07-24T06:50:07.396Z,23.80
2018-07-24T06:52:35.697Z,23.90
2018-07-24T06:55:04.090Z,23.90
2018-07-24T06:57:32.375Z,24.10
2018-07-24T07:00:00.647Z,24.30
2018-07-24T07:02:29.071Z,24.50
2018-07-24T07:04:57.380Z,24.70
2018-07-24T07:07:25.678Z,24.70
2018-07-24T07:09:54.682Z,24.90
2018-07-24T07:12:23.542Z,25.00
2018-07-24T07:14:51.802Z,25.20
2018-07-24T07:17:20.090Z,25.40
2018-07-24T07:22:16.443Z,25.70
2018-07-24T07:24:44.926Z,25.90
2018-07-24T07:27:13.202Z,26.20
2018-07-24T07:29:41.479Z,26.60
2018-07-24T07:32:09.782Z,26.80
2018-07-24T07:34:38.053Z,27.00
2018-07-24T07:37:06.336Z,26.90
2018-07-24T07:39:35.471Z,27.20
2018-07-24T07:42:03.785Z,27.40
2018-07-24T07:44:32.095Z,27.60
2018-07-24T07:47:00.473Z,28.00
2018-07-24T07:49:28.759Z,28.10
2018-07-24T07:51:57.805Z,28.00
2018-07-24T07:54:26.251Z,28.30
2018-07-24T07:56:54.534Z,28.50
2018-07-24T07:59:23.935Z,28.20
2018-07-24T08:01:53.729Z,28.60
2018-07-24T08:04:22.027Z,29.10
2018-07-24T08:06:50.323Z,29.70
2018-07-24T08:09:18.610Z,30.30
2018-07-24T08:11:47.006Z,30.90
2018-07-24T08:14:22.086Z,31.50
2018-07-24T08:16:50.410Z,32.10
2018-07-24T08:19:19.913Z,32.30
2018-07-24T08:21:49.683Z,33.20
2018-07-24T08:24:19.777Z,34.30
2018-07-24T08:26:51.210Z,35.30
2018-07-24T08:29:19.625Z,36.50
2018-07-24T08:31:47.910Z,36.90
2018-07-24T08:34:17.188Z,36.50
2018-07-24T08:36:45.539Z,37.60
2018-07-24T08:39:14.506Z,38.00
2018-07-24T08:41:42.793Z,36.90
2018-07-24T08:44:11.082Z,36.70
2018-07-24T08:46:39.455Z,36.30
2018-07-24T08:49:07.794Z,37.60
2018-07-24T08:51:36.010Z,38.80
2018-07-24T08:54:04.860Z,38.90
2018-07-24T08:56:34.258Z,39.70
2018-07-24T08:59:03.720Z,40.30
2018-07-24T09:01:32.044Z,40.90
2018-07-24T09:04:01.155Z,40.80
2018-07-24T09:06:30.417Z,40.90
2018-07-24T09:08:58.819Z,41.00
2018-07-24T09:11:28.561Z,41.30
2018-07-24T09:13:56.933Z,40.00
2018-07-24T09:16:25.238Z,39.80
2018-07-24T09:18:53.522Z,40.30
2018-07-24T09:21:21.963Z,41.30
2018-07-24T09:23:51.485Z,40.70
2018-07-24T09:26:20.728Z,41.00
2018-07-24T09:28:49.066Z,40.90
2018-07-24T09:31:17.568Z,41.50
2018-07-24T09:33:47.401Z,41.40
2018-07-24T09:36:16.049Z,39.30
2018-07-24T09:38:44.723Z,39.80
2018-07-24T09:41:14.730Z,40.70
2018-07-24T09:43:43.873Z,40.90
2018-07-24T09:46:12.133Z,41.20
2018-07-24T09:48:41.382Z,41.40
2018-07-24T09:51:09.667Z,41.10
2018-07-24T09:53:38.016Z,41.50
2018-07-24T09:56:12.966Z,41.30
2018-07-24T09:58:41.279Z,41.00
2018-07-24T10:01:15.185Z,39.50
2018-07-24T10:03:44.562Z,39.50
2018-07-24T10:06:12.876Z,39.80
2018-07-24T10:08:41.749Z,40.00
2018-07-24T10:11:10.027Z,40.20
2018-07-24T10:13:38.289Z,40.00
2018-07-24T10:16:06.564Z,39.90
2018-07-24T10:18:34.861Z,39.70
2018-07-24T10:21:04.347Z,40.10
2018-07-24T10:23:33.537Z,40.20
2018-07-24T10:26:02.397Z,40.10
2018-07-24T10:28:30.685Z,40.00
2018-07-24T10:30:59.127Z,40.10
2018-07-24T10:33:27.401Z,40.10
2018-07-24T10:35:56.042Z,39.00
2018-07-24T10:38:24.350Z,38.60
2018-07-24T10:40:53.210Z,39.10
2018-07-24T10:43:22.138Z,39.50
2018-07-24T10:45:51.041Z,39.60
2018-07-24T10:48:19.969Z,39.00
2018-07-24T10:50:48.546Z,38.90
2018-07-24T10:53:17.245Z,38.40
2018-07-24T10:55:46.405Z,38.30
2018-07-24T10:58:15.593Z,38.20
2018-07-24T11:00:43.962Z,37.80
2018-07-24T11:03:12.237Z,37.00
2018-07-24T11:05:40.540Z,36.00
2018-07-24T11:08:08.828Z,35.00
2018-07-24T11:10:37.139Z,34.20
2018-07-24T11:13:05.493Z,33.30
2018-07-24T11:15:33.777Z,33.00
2018-07-24T11:18:02.054Z,32.30
2018-07-24T11:20:30.391Z,32.10
2018-07-24T11:22:59.142Z,32.20
2018-07-24T11:25:27.598Z,32.40
2018-07-24T11:27:55.898Z,32.40
2018-07-24T11:30:24.162Z,32.50
2018-07-24T11:32:53.022Z,32.30
2018-07-24T11:35:21.390Z,32.30
2018-07-24T11:40:17.874Z,31.80
2018-07-24T11:42:46.202Z,31.40
2018-07-24T11:45:16.783Z,31.30
2018-07-24T11:47:45.529Z,31.40
2018-07-24T11:50:13.838Z,31.40
2018-07-24T11:52:43.127Z,31.30
2018-07-24T11:55:11.464Z,31.20
2018-07-24T11:57:40.508Z,31.30
2018-07-24T12:00:08.786Z,31.40
2018-07-24T12:02:37.087Z,31.40
2018-07-24T12:05:05.841Z,31.30
2018-07-24T12:07:34.322Z,31.20
2018-07-24T12:10:02.584Z,31.00
2018-07-24T12:12:30.833Z,30.90
2018-07-24T12:14:59.173Z,31.00
2018-07-24T12:17:27.371Z,31.00
2018-07-24T12:19:55.662Z,31.00
2018-07-24T12:22:23.952Z,30.90
2018-07-24T12:24:52.618Z,30.80
2018-07-24T12:27:20.887Z,30.80
2018-07-24T12:29:50.122Z,30.80
2018-07-24T12:32:18.399Z,30.80
2018-07-24T12:34:46.688Z,31.00
2018-07-24T12:37:14.941Z,31.10
2018-07-24T12:39:43.809Z,31.10
2018-07-24T12:42:12.134Z,31.20
2018-07-24T12:44:40.415Z,31.30
2018-07-24T12:47:08.671Z,31.50
2018-07-24T12:49:36.938Z,31.40
2018-07-24T12:52:06.493Z,31.40
2018-07-24T12:54:34.873Z,31.30
2018-07-24T12:59:31.146Z,31.20
2018-07-24T13:01:59.406Z,31.20
2018-07-24T13:04:27.710Z,31.10
2018-07-24T13:06:56.099Z,31.00
2018-07-24T13:09:25.545Z,31.00
2018-07-24T13:11:53.845Z,30.90
2018-07-24T13:16:50.130Z,30.80
2018-07-24T13:19:18.382Z,30.80
2018-07-24T13:21:47.577Z,30.80
2018-07-24T13:24:15.837Z,30.90
2018-07-24T13:26:44.106Z,31.00
2018-07-24T13:29:12.391Z,30.90
2018-07-24T13:31:40.687Z,30.90
2018-07-24T13:34:08.982Z,30.80
2018-07-24T13:36:37.249Z,30.80
2018-07-24T13:39:08.331Z,30.70
2018-07-24T13:41:37.202Z,30.70
2018-07-24T13:44:06.670Z,30.70
2018-07-24T13:46:35.054Z,30.60
2018-07-24T13:49:03.598Z,30.50
2018-07-24T13:51:31.886Z,30.40
2018-07-24T13:54:00.222Z,30.40
2018-07-24T13:56:28.508Z,30.50
2018-07-24T13:58:56.783Z,30.60
2018-07-24T14:01:25.061Z,30.70
2018-07-24T14:03:53.321Z,30.70
2018-07-24T14:06:21.611Z,30.70
2018-07-24T14:08:49.868Z,30.70
2018-07-24T14:11:18.147Z,30.80
2018-07-24T14:13:46.426Z,30.90
2018-07-24T14:16:14.679Z,30.80
2018-07-24T14:18:42.926Z,30.80
2018-07-24T14:21:11.233Z,31.00
2018-07-24T14:23:39.482Z,30.90
2018-07-24T14:26:07.872Z,31.00
2018-07-24T14:28:36.697Z,31.00
2018-07-24T14:31:05.021Z,31.00
2018-07-24T14:33:33.254Z,30.90
2018-07-24T14:36:01.804Z,30.80
2018-07-24T14:38:30.245Z,30.60
2018-07-24T14:40:59.192Z,30.50
2018-07-24T14:43:28.475Z,30.40
2018-07-24T14:45:56.749Z,30.50
2018-07-24T14:48:25.005Z,30.50
2018-07-24T14:50:53.321Z,30.50
2018-07-24T14:53:21.562Z,30.50
2018-07-24T14:55:49.826Z,30.60
2018-07-24T14:58:18.084Z,30.50
2018-07-24T15:00:46.361Z,30.50
2018-07-24T15:03:14.641Z,30.40
2018-07-24T15:05:42.938Z,30.30
2018-07-24T15:08:11.501Z,30.30
2018-07-24T15:10:39.785Z,30.30
2018-07-24T15:13:08.066Z,30.40
2018-07-24T15:15:37.209Z,30.50
2018-07-24T15:18:05.497Z,30.50
2018-07-24T15:20:34.413Z,30.60
2018-07-24T15:23:02.774Z,30.50
2018-07-24T15:25:31.098Z,30.60
2018-07-24T15:27:59.366Z,30.60
2018-07-24T15:30:28.363Z,30.60
2018-07-24T15:32:56.693Z,30.60
2018-07-24T15:35:25.022Z,30.60
2018-07-24T15:37:53.326Z,30.60
2018-07-24T15:40:22.558Z,30.60
2018-07-24T15:45:19.154Z,30.70
2018-07-24T15:47:48.598Z,30.60
2018-07-24T15:50:18.072Z,30.60
2018-07-24T15:52:46.405Z,30.60
2018-07-24T15:55:15.002Z,30.60
2018-07-24T15:57:44.543Z,30.60
2018-07-24T16:00:13.327Z,30.60
2018-07-24T16:02:41.606Z,30.70
2018-07-24T16:05:09.911Z,30.80
2018-07-24T16:07:38.282Z,30.80
2018-07-24T16:10:06.869Z,31.00
2018-07-24T16:12:35.181Z,31.00
2018-07-24T16:15:03.756Z,31.00
2018-07-24T16:20:01.514Z,31.00
2018-07-24T16:22:29.837Z,31.00
2018-07-24T16:24:58.098Z,30.90
2018-07-24T16:27:26.446Z,30.70
2018-07-24T16:29:54.717Z,30.60
2018-07-24T16:32:23.019Z,30.60
2018-07-24T16:34:51.705Z,30.60
2018-07-24T16:37:20.874Z,30.70
2018-07-24T16:39:49.241Z,30.60
2018-07-24T16:42:17.707Z,30.70
2018-07-24T16:44:45.972Z,30.80
2018-07-24T16:47:14.298Z,30.80
2018-07-24T16:49:43.016Z,30.80
2018-07-24T16:52:11.330Z,30.70
2018-07-24T16:54:39.672Z,30.60
2018-07-24T16:57:07.990Z,30.40
2018-07-24T16:59:36.252Z,30.30
2018-07-24T17:02:04.563Z,30.10
2018-07-24T17:04:32.821Z,30.00
2018-07-24T17:07:01.740Z,29.90
2018-07-24T17:09:30.796Z,30.00
2018-07-24T17:11:59.194Z,30.00
2018-07-24T17:14:27.504Z,30.20
2018-07-24T17:16:56.021Z,30.30
2018-07-24T17:19:24.367Z,30.40
2018-07-24T17:21:52.838Z,30.40
2018-07-24T17:24:21.320Z,30.40
2018-07-24T17:32:10.745Z,30.10
2018-07-24T17:34:39.000Z,29.90
2018-07-24T17:37:07.265Z,30.00
2018-07-24T17:39:35.528Z,29.90
2018-07-24T17:42:03.942Z,29.90
2018-07-24T17:44:32.418Z,29.80
2018-07-24T17:47:00.695Z,29.80
2018-07-24T17:49:28.945Z,29.90
2018-07-24T17:51:57.245Z,30.00
2018-07-24T17:54:25.470Z,30.10
2018-07-24T17:56:53.702Z,30.10
2018-07-24T17:59:22.337Z,30.00
2018-07-24T18:01:50.593Z,30.00
2018-07-24T18:04:18.835Z,30.00
2018-07-24T18:06:47.071Z,30.10
2018-07-24T18:09:15.337Z,30.10
2018-07-24T18:11:43.570Z,30.00
2018-07-24T18:16:40.049Z,30.00
2018-07-24T18:19:08.543Z,30.10
2018-07-24T18:21:36.790Z,30.10
2018-07-24T18:24:05.406Z,30.00
2018-07-24T18:26:34.323Z,29.90
2018-07-24T18:29:02.641Z,29.80
2018-07-24T18:31:30.922Z,29.60
2018-07-24T18:33:59.193Z,29.50
2018-07-24T18:36:27.491Z,29.40
2018-07-24T18:38:55.772Z,29.30
2018-07-24T18:41:24.049Z,29.10
2018-07-24T18:43:52.707Z,29.20
2018-07-24T18:46:21.250Z,29.10
2018-07-24T18:48:49.748Z,29.10
2018-07-24T18:51:18.097Z,29.10
2018-07-24T18:53:46.412Z,29.00
2018-07-24T18:56:14.909Z,28.90
2018-07-24T18:58:43.337Z,28.80
2018-07-24T19:01:11.750Z,28.80
2018-07-24T19:03:40.133Z,28.60
2018-07-24T19:06:08.456Z,28.40
2018-07-24T19:08:36.883Z,28.20
2018-07-24T19:11:05.284Z,27.90
2018-07-24T19:13:33.777Z,27.70
2018-07-24T19:16:02.093Z,27.50
2018-07-24T19:18:30.481Z,27.30
2018-07-24T19:20:59.861Z,27.10
2018-07-24T19:23:28.154Z,27.00
2018-07-24T19:25:56.925Z,27.00
2018-07-24T19:28:25.206Z,26.90
2018-07-24T19:33:21.617Z,26.80
2018-07-24T19:35:49.850Z,26.70
2018-07-24T19:38:18.226Z,26.70
2018-07-24T19:40:46.502Z,26.60
2018-07-24T19:43:14.737Z,26.50
2018-07-24T19:45:43.241Z,26.40
2018-07-24T19:50:39.517Z,26.30
2018-07-24T19:53:07.773Z,26.20
2018-07-24T19:55:36.057Z,26.10
2018-07-24T19:58:05.005Z,26.00
2018-07-24T20:00:33.325Z,26.00
2018-07-24T20:03:01.582Z,25.90
2018-07-24T20:05:30.001Z,25.60
2018-07-24T20:07:58.385Z,24.90
2018-07-24T20:10:27.167Z,24.10
2018-07-24T20:12:55.549Z,23.50
2018-07-24T20:15:24.099Z,23.10
2018-07-24T20:17:52.389Z,22.90
2018-07-24T20:20:20.913Z,22.80
2018-07-24T20:22:49.694Z,22.80
2018-07-24T20:25:17.929Z,22.90
2018-07-24T20:27:46.589Z,23.00
2018-07-24T20:30:14.944Z,23.10
2018-07-24T20:32:43.822Z,23.20
2018-07-24T20:35:12.357Z,23.30
2018-07-24T20:37:40.794Z,23.40
2018-07-24T20:40:09.198Z,23.40
2018-07-24T20:42:37.561Z,23.40
2018-07-24T20:45:06.102Z,23.40
2018-07-24T20:47:34.370Z,23.50
2018-07-24T20:50:02.804Z,23.40
2018-07-24T20:52:31.202Z,23.40
2018-07-24T20:54:59.571Z,23.40
2018-07-24T20:57:28.062Z,23.30
2018-07-24T20:59:56.431Z,23.30
2018-07-24T21:02:24.713Z,23.30
2018-07-24T21:04:53.018Z,23.30
2018-07-24T21:07:21.317Z,23.20
2018-07-24T21:12:18.205Z,23.10
2018-07-24T21:14:46.489Z,23.00
2018-07-24T21:17:14.759Z,23.00
2018-07-24T21:19:43.025Z,22.90
2018-07-24T21:22:11.305Z,22.90
2018-07-24T21:24:39.583Z,22.80
2018-07-24T21:27:07.878Z,22.70
2018-07-24T21:29:36.190Z,22.70
2018-07-24T21:32:04.541Z,22.70
2018-07-24T21:34:32.841Z,22.60
2018-07-24T21:37:01.098Z,22.60
2018-07-24T21:39:29.392Z,22.60
2018-07-24T21:41:57.660Z,22.50
2018-07-24T21:44:25.961Z,22.60
2018-07-24T21:46:54.508Z,22.50
2018-07-24T21:49:22.897Z,22.50
2018-07-24T21:51:51.177Z,22.50
2018-07-24T21:54:19.454Z,22.40
2018-07-24T21:56:47.727Z,22.50
2018-07-24T21:59:16.363Z,22.50
2018-07-24T22:01:44.648Z,22.50
2018-07-24T22:04:12.926Z,22.40
2018-07-24T22:06:41.205Z,22.40
2018-07-24T22:09:09.830Z,22.40
2018-07-24T22:11:38.230Z,22.40
2018-07-24T22:14:06.515Z,22.30
2018-07-24T22:16:34.807Z,22.30
2018-07-24T22:19:03.725Z,22.20
2018-07-24T22:21:31.993Z,22.20
2018-07-24T22:24:00.261Z,22.20
2018-07-24T22:26:29.231Z,22.20
2018-07-24T22:28:58.094Z,22.20
2018-07-24T22:31:26.489Z,22.20
2018-07-24T22:33:54.757Z,22.20
2018-07-24T22:36:23.061Z,22.20
2018-07-24T22:38:51.333Z,22.20
2018-07-24T22:41:19.604Z,22.20
2018-07-24T22:43:47.892Z,22.20
2018-07-24T22:46:16.974Z,22.40
2018-07-24T22:48:46.042Z,22.40
2018-07-24T22:51:14.383Z,22.40
2018-07-24T22:53:42.641Z,22.30
2018-07-24T22:56:11.601Z,22.30
2018-07-24T22:58:41.062Z,22.20
2018-07-24T23:01:09.465Z,22.10
2018-07-24T23:03:37.724Z,22.00
2018-07-24T23:06:06.143Z,22.00
2018-07-24T23:08:34.549Z,22.00
2018-07-24T23:11:03.093Z,22.00
2018-07-24T23:13:31.415Z,22.00
2018-07-24T23:15:59.709Z,22.00
2018-07-24T23:18:27.972Z,21.90
2018-07-24T23:20:56.257Z,21.80
2018-07-24T23:23:24.527Z,21.70
2018-07-24T23:25:53.650Z,21.60
2018-07-24T23:28:22.812Z,21.60
2018-07-24T23:30:51.208Z,21.50
2018-07-24T23:33:19.470Z,21.50
2018-07-24T23:35:47.797Z,21.40
2018-07-24T23:38:16.062Z,21.40
2018-07-24T23:40:44.409Z,21.40
2018-07-24T23:43:12.699Z,21.50
2018-07-24T23:45:41.381Z,21.40
2018-07-24T23:48:09.657Z,21.50
2018-07-24T23:50:38.102Z,21.60
2018-07-24T23:53:06.830Z,21.60
2018-07-24T23:55:36.046Z,21.50
2018-07-24T23:58:05.422Z,21.50
